Time;durP1;ratioP1;P1;durP2;ratioP2;P2;SDS_P1;SDS_P2;PMS_P1;PMS_P2;Temp;Humidity;BMP_temperature;BMP_pressure;BME280_temperature;BME280_humidity;BME280_pressure;Samples;Min_cycle;Max_cycle;Signal;HPM_P1;HPM_P2
2023/03/08 00:01:43;;;;;;;;;;;8.10;57.10;;;;;;5054805;28;19913;-85
2023/03/08 00:04:09;;;;;;;;;;;8.00;57.00;;;;;;5052995;28;20011;-86
2023/03/08 00:06:34;;;;;;;;;;;8.10;57.00;;;;;;5054514;28;20304;-86
2023/03/08 00:09:00;;;;;;;;;;;8.10;57.10;;;;;;5054512;28;19919;-85
2023/03/08 00:11:26;;;;;;;;;;;8.00;57.00;;;;;;5054311;28;19925;-85
2023/03/08 00:13:53;;;;;;;;;;;8.10;57.10;;;;;;5053010;28;19916;-86
2023/03/08 00:16:19;;;;;;;;;;;8.10;57.10;;;;;;5054401;28;19966;-86
2023/03/08 00:18:44;;;;;;;;;;;8.10;57.10;;;;;;5054301;28;19917;-85
2023/03/08 00:21:11;;;;;;;;;;;8.10;57.10;;;;;;5054086;28;20390;-85
2023/03/08 00:23:37;;;;;;;;;;;8.10;57.10;;;;;;5054219;28;19909;-85
2023/03/08 00:26:03;;;;;;;;;;;8.10;57.10;;;;;;5052896;28;19962;-85
2023/03/08 00:28:29;;;;;;;;;;;8.00;57.10;;;;;;5053766;28;19935;-83
2023/03/08 00:30:58;;;;;;;;;;;8.00;57.00;;;;;;5054379;28;19909;-85
2023/03/08 00:33:23;;;;;;;;;;;8.00;57.00;;;;;;5053920;28;19915;-86
2023/03/08 00:36:18;;;;;;;;;;;8.00;57.10;;;;;;5054043;28;19912;-84
2023/03/08 00:38:44;;;;;;;;;;;8.00;57.10;;;;;;5044753;28;19919;-87
2023/03/08 00:41:10;;;;;;;;;;;8.00;57.70;;;;;;5054288;28;19909;-85
2023/03/08 00:43:36;;;;;;;;;;;8.00;57.10;;;;;;5054949;28;20282;-84
2023/03/08 06:01:49;;;;;;;;;;;8.60;57.80;;;;;;5059798;28;19932;-87
2023/03/08 06:04:15;;;;;;;;;;;8.70;57.80;;;;;;5056020;28;20007;-81
2023/03/08 06:06:40;;;;;;;;;;;8.70;57.70;;;;;;5055096;28;20011;-87
2023/03/08 06:09:06;;;;;;;;;;;8.70;57.60;;;;;;5054603;28;19913;-86
2023/03/08 06:11:32;;;;;;;;;;;8.80;57.60;;;;;;5054757;28;19909;-87
2023/03/08 06:13:57;;;;;;;;;;;8.80;57.50;;;;;;5055889;28;19912;-87
2023/03/08 06:16:23;;;;;;;;;;;8.80;57.50;;;;;;5055596;28;19916;-87
2023/03/08 06:18:48;;;;;;;;;;;8.80;57.40;;;;;;5055679;28;19965;-81
2023/03/08 06:21:15;;;;;;;;;;;8.90;57.40;;;;;;5056202;28;19908;-83
2023/03/08 06:23:40;;;;;;;;;;;8.90;57.40;;;;;;5056017;28;19917;-80
2023/03/08 06:26:06;;;;;;;;;;;8.90;57.30;;;;;;5055815;28;20347;-82
2023/03/08 06:28:32;;;;;;;;;;;8.90;57.20;;;;;;5053796;28;20256;-84
2023/03/08 06:30:58;;;;;;;;;;;9.00;57.20;;;;;;5055010;28;19916;-86
2023/03/08 06:33:25;;;;;;;;;;;9.00;57.10;;;;;;5063830;28;19915;-86
2023/03/08 06:35:58;;;;;;;;;;;9.00;57.70;;;;;;5054527;28;19928;-86
2023/03/08 06:38:24;;;;;;;;;;;9.00;57.10;;;;;;5055462;28;19909;-86
2023/03/08 06:40:50;;;;;;;;;;;9.00;57.10;;;;;;5055315;28;19913;-86
2023/03/08 06:43:15;;;;;;;;;;;9.00;57.00;;;;;;5055529;28;19962;-86
2023/03/08 06:45:41;;;;;;;;;;;9.00;57.00;;;;;;5055580;28;19916;-87
2023/03/08 06:48:06;;;;;;;;;;;9.00;56.90;;;;;;5054692;28;19963;-86
2023/03/08 06:50:32;;;;;;;;;;;9.00;56.90;;;;;;5055034;28;20004;-85
2023/03/08 06:52:58;;;;;;;;;;;9.10;56.90;;;;;;5075811;28;19915;-85
2023/03/08 06:55:24;;;;;;;;;;;9.10;56.90;;;;;;5074625;28;19931;-78
2023/03/08 06:57:49;;;;;;;;;;;9.10;56.90;;;;;;5076496;28;19925;-78
2023/03/08 07:00:15;;;;;;;;;;;9.10;56.90;;;;;;5075104;28;20011;-79
2023/03/08 07:02:41;;;;;;;;;;;9.10;56.80;;;;;;5074976;28;19965;-75
2023/03/08 07:05:06;;;;;;;;;;;9.20;56.90;;;;;;5075140;28;20003;-77
2023/03/08 07:07:34;;;;;;;;;;;9.20;56.80;;;;;;5075050;28;19988;-79
2023/03/08 07:10:00;;;;;;;;;;;9.20;56.80;;;;;;5075422;28;19912;-80
2023/03/08 07:12:25;;;;;;;;;;;9.20;56.80;;;;;;5076991;28;19935;-77
2023/03/08 07:14:52;;;;;;;;;;;9.20;56.80;;;;;;5075920;28;19939;-79
2023/03/08 07:17:18;;;;;;;;;;;9.20;56.70;;;;;;5074988;28;19920;-77
2023/03/08 07:19:44;;;;;;;;;;;9.30;56.70;;;;;;5073343;28;19914;-77
2023/03/08 07:22:11;;;;;;;;;;;9.30;56.70;;;;;;5073740;28;19909;-78
2023/03/08 07:24:37;;;;;;;;;;;9.30;56.70;;;;;;5074633;28;20365;-74
2023/03/08 07:27:03;;;;;;;;;;;9.40;56.60;;;;;;5074661;28;19909;-74
2023/03/08 07:29:28;;;;;;;;;;;9.40;56.60;;;;;;5072603;28;20003;-73
2023/03/08 07:31:54;;;;;;;;;;;9.40;56.60;;;;;;5074530;28;19909;-75
2023/03/08 07:34:19;;;;;;;;;;;9.50;56.60;;;;;;5074307;28;19932;-77
2023/03/08 07:36:45;;;;;;;;;;;9.50;56.50;;;;;;5074438;28;20401;-75
2023/03/08 07:39:10;;;;;;;;;;;9.50;56.40;;;;;;5074403;28;19920;-75
2023/03/08 07:41:36;;;;;;;;;;;9.50;56.30;;;;;;5073811;28;19909;-76
2023/03/08 07:44:02;;;;;;;;;;;9.60;56.30;;;;;;5074092;28;19915;-74
2023/03/08 07:46:28;;;;;;;;;;;9.60;56.30;;;;;;5074176;28;19915;-74
2023/03/08 07:48:53;;;;;;;;;;;9.60;56.20;;;;;;5072756;28;19908;-76
2023/03/08 07:51:19;;;;;;;;;;;9.60;56.20;;;;;;5072954;28;19916;-74
2023/03/08 07:53:44;;;;;;;;;;;9.60;56.30;;;;;;5075001;28;19915;-76
2023/03/08 07:56:10;;;;;;;;;;;9.60;56.20;;;;;;5072738;28;19924;-75
2023/03/08 07:58:36;;;;;;;;;;;9.60;56.20;;;;;;5072060;28;19912;-76
2023/03/08 08:01:06;;;;;;;;;;;9.60;56.20;;;;;;5073312;28;19920;-74
2023/03/08 08:03:33;;;;;;;;;;;9.60;56.20;;;;;;5073038;28;20282;-75
2023/03/08 08:06:00;;;;;;;;;;;9.70;56.20;;;;;;5072859;28;19922;-75
2023/03/08 08:08:26;;;;;;;;;;;9.70;56.30;;;;;;5073824;28;19962;-75
2023/03/08 08:10:51;;;;;;;;;;;9.70;56.20;;;;;;5073254;28;19938;-77
2023/03/08 08:13:17;;;;;;;;;;;9.80;56.20;;;;;;5073633;28;19943;-76
2023/03/08 08:15:42;;;;;;;;;;;9.80;56.20;;;;;;5073684;28;19923;-75
2023/03/08 08:18:10;;;;;;;;;;;9.90;56.10;;;;;;5072748;28;20476;-75
2023/03/08 08:20:36;;;;;;;;;;;10.00;56.10;;;;;;5073253;28;19912;-75
2023/03/08 08:23:03;;;;;;;;;;;10.00;56.00;;;;;;5073196;28;19916;-75
2023/03/08 08:25:29;;;;;;;;;;;10.00;56.00;;;;;;5073711;28;19912;-75
2023/03/08 08:27:54;;;;;;;;;;;10.10;56.00;;;;;;5072324;28;19913;-75
2023/03/08 08:30:20;;;;;;;;;;;10.20;55.90;;;;;;5073185;28;19919;-77
2023/03/08 08:32:46;;;;;;;;;;;10.20;55.90;;;;;;5073075;28;20366;-75
2023/03/08 08:35:11;;;;;;;;;;;10.30;55.80;;;;;;5073325;28;19936;-75
2023/03/08 08:37:37;;;;;;;;;;;10.30;55.70;;;;;;5073193;28;19970;-79
2023/03/08 08:40:02;;;;;;;;;;;10.40;55.70;;;;;;5071870;28;19909;-75
2023/03/08 08:42:28;;;;;;;;;;;10.50;55.60;;;;;;5072786;28;20365;-76
2023/03/08 08:44:54;;;;;;;;;;;10.50;55.50;;;;;;5073123;28;19999;-74
2023/03/08 08:47:19;;;;;;;;;;;10.60;55.50;;;;;;5073242;28;19992;-75
2023/03/08 08:49:45;;;;;;;;;;;10.60;55.50;;;;;;5073259;28;20383;-75
2023/03/08 08:52:10;;;;;;;;;;;10.70;55.40;;;;;;5072907;28;19912;-75
2023/03/08 08:54:38;;;;;;;;;;;10.70;55.30;;;;;;5072213;28;19908;-76
2023/03/08 08:57:04;;;;;;;;;;;10.70;55.20;;;;;;5073565;28;20322;-75
2023/03/08 08:59:30;;;;;;;;;;;10.70;55.20;;;;;;5073089;28;20401;-77
2023/03/08 09:01:55;;;;;;;;;;;10.80;55.10;;;;;;5072928;28;19924;-76
2023/03/08 09:04:21;;;;;;;;;;;10.80;55.10;;;;;;5072628;28;19917;-75
2023/03/08 09:06:47;;;;;;;;;;;10.80;55.10;;;;;;5072997;28;20326;-76
2023/03/08 09:09:12;;;;;;;;;;;10.80;55.70;;;;;;5072808;28;20297;-76
2023/03/08 09:11:38;;;;;;;;;;;10.90;55.10;;;;;;5072288;28;19915;-75
2023/03/08 09:14:03;;;;;;;;;;;10.90;55.10;;;;;;5072801;28;19970;-75
2023/03/08 09:16:30;;;;;;;;;;;10.90;55.00;;;;;;5071604;28;19912;-76
2023/03/08 09:18:57;;;;;;;;;;;10.90;55.00;;;;;;5072946;28;19913;-74
2023/03/08 09:21:23;;;;;;;;;;;11.00;55.00;;;;;;5072688;28;20385;-75
2023/03/08 09:23:49;;;;;;;;;;;11.00;54.90;;;;;;5070972;28;19908;-76
2023/03/08 09:26:14;;;;;;;;;;;11.00;54.90;;;;;;5072900;28;20274;-75
2023/03/08 09:28:40;;;;;;;;;;;11.10;54.90;;;;;;5072321;28;20308;-75
2023/03/08 09:31:10;;;;;;;;;;;11.10;54.80;;;;;;5072522;28;19908;-74
2023/03/08 09:33:40;;;;;;;;;;;11.10;54.80;;;;;;5071835;28;19962;-75
2023/03/08 09:36:06;;;;;;;;;;;11.20;54.80;;;;;;5070932;28;19962;-78
2023/03/08 09:38:31;;;;;;;;;;;11.20;54.80;;;;;;5072485;28;19916;-78
2023/03/08 09:41:16;;;;;;;;;;;11.30;54.80;;;;;;5072547;28;19977;-75
2023/03/08 09:44:00;;;;;;;;;;;11.30;54.80;;;;;;5072722;28;19912;-74
2023/03/08 09:46:29;;;;;;;;;;;11.40;54.60;;;;;;5072287;28;19912;-75
2023/03/08 09:48:59;;;;;;;;;;;11.40;54.60;;;;;;5072668;28;19908;-75
2023/03/08 09:51:28;;;;;;;;;;;11.40;54.50;;;;;;5071216;28;19966;-76
2023/03/08 09:53:56;;;;;;;;;;;11.40;54.50;;;;;;5074620;28;19909;-74
2023/03/08 09:56:28;;;;;;;;;;;11.40;54.40;;;;;;5075743;28;19916;-76
2023/03/08 09:58:57;;;;;;;;;;;11.40;54.40;;;;;;5074757;28;19959;-75
2023/03/08 10:01:37;;;;;;;;;;;11.50;54.40;;;;;;5074644;28;19921;-74
2023/03/08 10:04:08;;;;;;;;;;;11.50;54.50;;;;;;5075148;28;19909;-76
2023/03/08 10:06:55;;;;;;;;;;;11.50;54.50;;;;;;5075707;28;19995;-75
2023/03/08 10:09:30;;;;;;;;;;;11.50;54.40;;;;;;5074792;28;19920;-76
2023/03/08 10:11:59;;;;;;;;;;;11.60;54.50;;;;;;5075653;28;19978;-75
2023/03/08 10:14:29;;;;;;;;;;;11.60;54.50;;;;;;5075816;28;19948;-75
2023/03/08 10:16:56;;;;;;;;;;;11.60;54.40;;;;;;5075425;28;20003;-75
2023/03/08 10:19:40;;;;;;;;;;;11.70;54.40;;;;;;5075965;28;19913;-76
2023/03/08 10:22:08;;;;;;;;;;;11.70;54.30;;;;;;5075557;28;19984;-76
2023/03/08 10:24:40;;;;;;;;;;;11.80;54.30;;;;;;5076032;28;19916;-77
2023/03/08 10:27:25;;;;;;;;;;;11.70;54.20;;;;;;5075380;28;19962;-75
2023/03/08 10:29:57;;;;;;;;;;;11.70;54.20;;;;;;5075978;28;20003;-77
2023/03/08 10:32:23;;;;;;;;;;;11.70;54.20;;;;;;5075372;28;19981;-76
2023/03/08 10:34:49;;;;;;;;;;;11.80;54.30;;;;;;5075403;28;19912;-76
2023/03/08 10:37:15;;;;;;;;;;;11.80;54.30;;;;;;5075517;28;19920;-75
2023/03/08 10:39:53;;;;;;;;;;;11.80;54.20;;;;;;5075342;28;19916;-76
2023/03/08 10:42:22;;;;;;;;;;;11.80;54.20;;;;;;5075105;28;19915;-74
2023/03/08 10:44:56;;;;;;;;;;;11.80;54.10;;;;;;5074048;28;19908;-75
2023/03/08 10:47:25;;;;;;;;;;;11.90;54.10;;;;;;5074914;28;19913;-76
2023/03/08 10:50:09;;;;;;;;;;;11.90;54.10;;;;;;5075453;28;19909;-75
2023/03/08 10:52:34;;;;;;;;;;;11.90;54.00;;;;;;5074610;28;19916;-76
2023/03/08 10:55:04;;;;;;;;;;;12.00;54.10;;;;;;5075243;28;19916;-75
2023/03/08 10:57:30;;;;;;;;;;;12.00;54.00;;;;;;5074607;28;20243;-76
2023/03/08 10:59:58;;;;;;;;;;;12.10;54.00;;;;;;5075165;28;20003;-75
2023/03/08 11:02:24;;;;;;;;;;;12.20;54.00;;;;;;5073913;28;19935;-75
2023/03/08 11:04:58;;;;;;;;;;;12.20;53.90;;;;;;5073674;28;19913;-75
2023/03/08 11:07:28;;;;;;;;;;;12.20;53.80;;;;;;5073515;28;19908;-76
2023/03/08 11:10:13;;;;;;;;;;;12.20;53.80;;;;;;5073242;28;19952;-76
2023/03/08 11:12:38;;;;;;;;;;;12.30;53.80;;;;;;5074380;28;20383;-76
2023/03/08 11:15:17;;;;;;;;;;;12.30;53.70;;;;;;5074824;28;19963;-75
2023/03/08 11:17:54;;;;;;;;;;;12.30;53.60;;;;;;5074268;28;19948;-75
2023/03/08 11:20:25;;;;;;;;;;;12.30;53.60;;;;;;5074562;28;19916;-75
2023/03/08 11:23:10;;;;;;;;;;;12.40;53.60;;;;;;5074655;28;20392;-75
2023/03/08 11:25:44;;;;;;;;;;;12.40;54.20;;;;;;5074637;28;19909;-75
2023/03/08 11:28:13;;;;;;;;;;;12.40;53.60;;;;;;5074397;28;19920;-75
2023/03/08 11:30:59;;;;;;;;;;;12.40;53.60;;;;;;5074233;28;20362;-76
2023/03/08 11:33:31;;;;;;;;;;;12.40;53.50;;;;;;5073263;28;19908;-76
2023/03/08 11:35:56;;;;;;;;;;;12.40;53.50;;;;;;5074416;28;19977;-76
2023/03/08 11:38:29;;;;;;;;;;;12.40;53.40;;;;;;5074088;28;19916;-75
2023/03/08 11:41:14;;;;;;;;;;;12.40;53.40;;;;;;5074044;28;20345;-76
2023/03/08 11:43:42;;;;;;;;;;;12.40;53.50;;;;;;5074750;28;19909;-76
2023/03/08 11:46:16;;;;;;;;;;;12.40;53.40;;;;;;5074614;28;20382;-75
2023/03/08 11:48:44;;;;;;;;;;;12.30;53.40;;;;;;5073771;28;19916;-75
2023/03/08 11:51:22;;;;;;;;;;;12.30;53.50;;;;;;5073922;28;20331;-77
2023/03/08 11:53:47;;;;;;;;;;;12.20;53.50;;;;;;5074008;28;19964;-73
2023/03/08 11:56:16;;;;;;;;;;;12.20;53.60;;;;;;5074290;28;19913;-75
2023/03/08 11:58:52;;;;;;;;;;;12.10;53.60;;;;;;5073440;28;19924;-75
2023/03/08 12:01:21;;;;;;;;;;;12.10;53.70;;;;;;5073852;28;19920;-76
2023/03/08 12:03:51;;;;;;;;;;;12.10;53.80;;;;;;5073593;28;19922;-77
2023/03/08 12:06:26;;;;;;;;;;;12.10;53.90;;;;;;5073705;28;19909;-75
2023/03/08 12:08:54;;;;;;;;;;;12.20;53.90;;;;;;5073554;28;19917;-76
2023/03/08 12:11:20;;;;;;;;;;;12.20;53.90;;;;;;5072045;28;19909;-75
2023/03/08 12:13:47;;;;;;;;;;;12.20;53.80;;;;;;5072184;28;19908;-75
2023/03/08 12:16:24;;;;;;;;;;;12.30;53.80;;;;;;5071651;28;19927;-74
2023/03/08 12:18:54;;;;;;;;;;;12.30;53.80;;;;;;5073194;28;19923;-76
2023/03/08 12:21:33;;;;;;;;;;;12.40;53.80;;;;;;5071927;28;19908;-75
2023/03/08 12:24:04;;;;;;;;;;;12.40;53.70;;;;;;5073505;28;20420;-75
2023/03/08 12:26:34;;;;;;;;;;;12.50;53.70;;;;;;5072300;28;19915;-75
2023/03/08 12:29:02;;;;;;;;;;;12.50;53.60;;;;;;5073729;28;19909;-75
2023/03/08 12:31:29;;;;;;;;;;;12.50;53.60;;;;;;5072652;28;19908;-75
2023/03/08 12:33:55;;;;;;;;;;;12.50;53.50;;;;;;5073169;28;19991;-75
2023/03/08 12:36:22;;;;;;;;;;;12.50;53.50;;;;;;5073374;28;20066;-74
2023/03/08 12:38:54;;;;;;;;;;;12.50;53.40;;;;;;5073393;28;19912;-75
2023/03/08 12:41:19;;;;;;;;;;;12.50;53.40;;;;;;5071918;28;19909;-77
2023/03/08 12:43:45;;;;;;;;;;;12.50;53.40;;;;;;5071927;28;20373;-76
2023/03/08 12:46:11;;;;;;;;;;;12.50;53.40;;;;;;5073367;28;19924;-75
2023/03/08 12:48:38;;;;;;;;;;;12.50;53.40;;;;;;5072944;28;19908;-76
2023/03/08 12:51:17;;;;;;;;;;;12.40;53.40;;;;;;5072501;28;19909;-76
2023/03/08 12:53:49;;;;;;;;;;;12.40;53.40;;;;;;5071793;28;20270;-76
2023/03/08 12:56:41;;;;;;;;;;;12.40;53.50;;;;;;5072971;28;20277;-75
2023/03/08 12:59:09;;;;;;;;;;;12.30;53.60;;;;;;5056727;28;19921;-76
2023/03/08 13:01:42;;;;;;;;;;;12.30;53.60;;;;;;5071498;28;19963;-75
2023/03/08 13:04:31;;;;;;;;;;;12.30;53.70;;;;;;5071539;28;19908;-79
2023/03/08 13:07:15;;;;;;;;;;;12.30;53.60;;;;;;5067120;28;19909;-76
2023/03/08 13:09:41;;;;;;;;;;;12.30;53.60;;;;;;5072997;28;19912;-77
2023/03/08 13:12:19;;;;;;;;;;;12.30;53.60;;;;;;5071567;28;19916;-75
2023/03/08 13:14:45;;;;;;;;;;;12.40;53.60;;;;;;5073019;28;19908;-76
2023/03/08 13:17:29;;;;;;;;;;;12.40;53.60;;;;;;5072487;28;19923;-75
2023/03/08 13:20:15;;;;;;;;;;;12.40;53.70;;;;;;5072559;28;20358;-76
2023/03/08 13:22:40;;;;;;;;;;;12.40;53.60;;;;;;5064898;28;19913;-75
2023/03/08 13:25:13;;;;;;;;;;;12.40;53.60;;;;;;5071567;28;19915;-76
2023/03/08 13:27:46;;;;;;;;;;;12.40;53.60;;;;;;5072890;28;20243;-81
2023/03/08 13:30:14;;;;;;;;;;;12.50;53.60;;;;;;5077069;28;19963;-75
2023/03/08 13:32:40;;;;;;;;;;;12.40;53.60;;;;;;5076108;28;20347;-75
2023/03/08 13:35:12;;;;;;;;;;;12.40;53.60;;;;;;5075355;28;19940;-75
2023/03/08 13:37:38;;;;;;;;;;;12.40;53.60;;;;;;5076695;28;19913;-76
2023/03/08 13:40:14;;;;;;;;;;;12.40;53.60;;;;;;5074890;28;20260;-76
2023/03/08 13:42:51;;;;;;;;;;;12.40;53.60;;;;;;5076166;28;19954;-75
2023/03/08 13:45:17;;;;;;;;;;;12.40;53.60;;;;;;5076471;28;19951;-75
2023/03/08 13:47:42;;;;;;;;;;;12.40;53.60;;;;;;5076128;28;19956;-75
2023/03/08 13:50:15;;;;;;;;;;;12.40;53.70;;;;;;5076254;28;19959;-78
2023/03/08 13:52:41;;;;;;;;;;;12.50;53.70;;;;;;5075405;28;20281;-76
2023/03/08 13:55:13;;;;;;;;;;;12.50;53.70;;;;;;5076227;28;19912;-75
2023/03/08 13:57:40;;;;;;;;;;;12.60;53.60;;;;;;5076330;28;19920;-75
2023/03/08 14:00:18;;;;;;;;;;;12.60;53.60;;;;;;5075943;28;19912;-74
2023/03/08 14:02:45;;;;;;;;;;;12.70;53.60;;;;;;5075670;28;19908;-78
2023/03/08 14:05:18;;;;;;;;;;;12.90;53.60;;;;;;5076208;28;19912;-76
2023/03/08 14:07:54;;;;;;;;;;;13.00;53.50;;;;;;5075809;28;19908;-76
2023/03/08 14:10:23;;;;;;;;;;;13.10;53.30;;;;;;5076012;28;19919;-77
2023/03/08 14:12:48;;;;;;;;;;;13.20;53.20;;;;;;5075724;28;20374;-76
2023/03/08 14:15:17;;;;;;;;;;;13.40;53.10;;;;;;5075649;28;19990;-76
2023/03/08 14:17:43;;;;;;;;;;;13.60;53.00;;;;;;5075320;28;19955;-77
2023/03/08 14:20:21;;;;;;;;;;;13.80;52.80;;;;;;5075764;28;19912;-76
2023/03/08 14:22:48;;;;;;;;;;;14.10;52.60;;;;;;5074375;28;19908;-77
2023/03/08 14:25:22;;;;;;;;;;;14.50;52.40;;;;;;5074229;28;20306;-75
2023/03/08 14:27:47;;;;;;;;;;;14.80;52.10;;;;;;5074196;28;20255;-76
2023/03/08 14:30:14;;;;;;;;;;;15.10;51.60;;;;;;5076000;28;19920;-76
2023/03/08 14:32:41;;;;;;;;;;;15.40;51.20;;;;;;5075276;28;19962;-74
2023/03/08 14:35:15;;;;;;;;;;;15.40;50.60;;;;;;5075654;28;19999;-75
2023/03/08 14:37:42;;;;;;;;;;;15.30;50.50;;;;;;5075177;28;19917;-75
2023/03/08 14:40:23;;;;;;;;;;;15.10;50.50;;;;;;5073779;28;20255;-76
2023/03/08 14:42:51;;;;;;;;;;;14.90;50.60;;;;;;5075269;28;19975;-75
2023/03/08 14:45:17;;;;;;;;;;;14.70;50.80;;;;;;5073949;28;19944;-75
2023/03/08 14:47:48;;;;;;;;;;;14.60;50.90;;;;;;5075244;28;20403;-75
